PWSweather.com
Personal Weather Stations
Station Observations
KCARIDGE3
Ridgecrest, CA 93555

Ridgecrest, CA 93555

Lat: 35.62083817, Lon: -117.6733017

Elevation: 2315

Station Type:

High Low Average
Temperature 70.2°F21.2°F 60.3°F15.7°F 62.8°F17.1°F
Dew Point 47.1°F8.4°F 42.8°F6.0°F 45.7°F7.6°F
Winds 23.0 mph S37.0 mph S 2.0 mph 3.2 mph 12.5 mph 20.1 mph
Wind Gusts 33.1 mph53.3 mph -- 12.0 mph19.3 mph
Humidity 61% 38% 54%
Pressure 0.00 in0.00 in 0.00 in0.00 in -
Precipitation 0.00 in0.00 in - -
Hour Temp Dew Point Humidity Winds Wind Gusts Pressure Precip Precip Rate Daily Precip Total
12:02 AM 65.8°F18.8°C 28.0°F-2.2°C 24% 2.9 mph SW4.7 kmh SW 2.0 mph3.2 kmh -338605.1 mb 0.00 in0.0 mm 0.00 in/hr0.0 mm/hr 0.00 in0.0 mm
12:07 AM 65.8°F18.8°C 28.0°F-2.2°C 24% 2.9 mph SSW4.7 kmh SSW 6.0 mph9.7 kmh -338605.1 mb 0.00 in0.0 mm 0.00 in/hr0.0 mm/hr 0.00 in0.0 mm
12:12 AM 66.0°F18.9°C 28.2°F-2.1°C 24% 4.9 mph S7.9 kmh S 8.1 mph13.0 kmh -338605.1 mb 0.00 in0.0 mm 0.00 in/hr0.0 mm/hr 0.00 in0.0 mm
12:17 AM 66.6°F19.2°C 28.6°F-1.9°C 24% 6.0 mph S9.7 kmh S 4.9 mph7.9 kmh -338605.1 mb 0.00 in0.0 mm 0.00 in/hr0.0 mm/hr 0.00 in0.0 mm
12:22 AM 66.9°F19.4°C 27.9°F-2.3°C 23% 6.0 mph S9.7 kmh S 4.0 mph6.4 kmh -338605.1 mb 0.00 in0.0 mm 0.00 in/hr0.0 mm/hr 0.00 in0.0 mm
12:27 AM 66.9°F19.4°C 27.9°F-2.3°C 23% 4.0 mph S6.4 kmh S 2.9 mph4.7 kmh -338605.1 mb 0.00 in0.0 mm 0.00 in/hr0.0 mm/hr 0.00 in0.0 mm
12:32 AM 66.9°F19.4°C 27.9°F-2.3°C 23% 4.0 mph S6.4 kmh S 4.9 mph7.9 kmh -338605.1 mb 0.00 in0.0 mm 0.00 in/hr0.0 mm/hr 0.00 in0.0 mm
12:37 AM 66.9°F19.4°C 27.9°F-2.3°C 23% 4.9 mph S7.9 kmh S 4.0 mph6.4 kmh -338605.1 mb 0.00 in0.0 mm 0.00 in/hr0.0 mm/hr 0.00 in0.0 mm
12:42 AM 66.9°F19.4°C 27.9°F-2.3°C 23% 4.0 mph SSE6.4 kmh SSE 4.0 mph6.4 kmh -338605.1 mb 0.00 in0.0 mm 0.00 in/hr0.0 mm/hr 0.00 in0.0 mm
12:47 AM 66.7°F19.3°C 27.7°F-2.4°C 23% 4.0 mph S6.4 kmh S 4.0 mph6.4 kmh -338605.1 mb 0.00 in0.0 mm 0.00 in/hr0.0 mm/hr 0.00 in0.0 mm
12:52 AM 66.7°F19.3°C 28.8°F-1.8°C 24% 4.9 mph S7.9 kmh S 4.9 mph7.9 kmh -338605.1 mb 0.00 in0.0 mm 0.00 in/hr0.0 mm/hr 0.00 in0.0 mm
12:57 AM 66.9°F19.4°C 28.9°F-1.7°C 24% 4.9 mph S7.9 kmh S 2.9 mph4.7 kmh -338605.1 mb 0.00 in0.0 mm 0.00 in/hr0.0 mm/hr 0.00 in0.0 mm
01:02 AM 66.9°F19.4°C 28.9°F-1.7°C 24% 4.9 mph SSW7.9 kmh SSW -- -338605.1 mb 0.00 in0.0 mm 0.00 in/hr0.0 mm/hr 0.00 in0.0 mm
01:07 AM 66.6°F19.2°C 28.6°F-1.9°C 24% 2.9 mph W4.7 kmh W 2.9 mph4.7 kmh -338605.1 mb 0.00 in0.0 mm 0.00 in/hr0.0 mm/hr 0.00 in0.0 mm
01:12 AM 66.4°F19.1°C 28.4°F-2.0°C 24% 2.9 mph W4.7 kmh W 2.9 mph4.7 kmh -338605.1 mb 0.00 in0.0 mm 0.00 in/hr0.0 mm/hr 0.00 in0.0 mm
01:17 AM 66.2°F19.0°C 27.3°F-2.6°C 23% 2.9 mph WSW4.7 kmh WSW 4.0 mph6.4 kmh -338605.1 mb 0.00 in0.0 mm 0.00 in/hr0.0 mm/hr 0.00 in0.0 mm
01:22 AM 66.0°F18.9°C 28.2°F-2.1°C 24% 2.9 mph WSW4.7 kmh WSW 0.9 mph1.4 kmh -338605.1 mb 0.00 in0.0 mm 0.00 in/hr0.0 mm/hr 0.00 in0.0 mm
01:27 AM 65.8°F18.8°C 28.0°F-2.2°C 24% 2.9 mph SW4.7 kmh SW 4.0 mph6.4 kmh -338605.1 mb 0.00 in0.0 mm 0.00 in/hr0.0 mm/hr 0.00 in0.0 mm
01:32 AM 65.7°F18.7°C 27.9°F-2.3°C 24% 4.0 mph WSW6.4 kmh WSW 4.9 mph7.9 kmh -338605.1 mb 0.00 in0.0 mm 0.00 in/hr0.0 mm/hr 0.00 in0.0 mm
01:37 AM 65.1°F18.4°C 27.5°F-2.5°C 24% 6.0 mph WSW9.7 kmh WSW 8.1 mph13.0 kmh -338605.1 mb 0.00 in0.0 mm 0.00 in/hr0.0 mm/hr 0.00 in0.0 mm
01:42 AM 65.1°F18.4°C 27.5°F-2.5°C 24% 6.9 mph SW11.1 kmh SW 10.1 mph16.3 kmh -338605.1 mb 0.00 in0.0 mm 0.00 in/hr0.0 mm/hr 0.00 in0.0 mm
01:47 AM 65.1°F18.4°C 27.5°F-2.5°C 24% 8.1 mph SSW13.0 kmh SSW 8.9 mph14.3 kmh -338605.1 mb 0.00 in0.0 mm 0.00 in/hr0.0 mm/hr 0.00 in0.0 mm
01:52 AM 65.7°F18.7°C 27.9°F-2.3°C 24% 6.9 mph SSW11.1 kmh SSW 6.0 mph9.7 kmh -338605.1 mb 0.00 in0.0 mm 0.00 in/hr0.0 mm/hr 0.00 in0.0 mm
01:57 AM 66.0°F18.9°C 29.1°F-1.6°C 25% 8.1 mph SSW13.0 kmh SSW 4.9 mph7.9 kmh -338605.1 mb 0.00 in0.0 mm 0.00 in/hr0.0 mm/hr 0.00 in0.0 mm
02:02 AM 66.0°F18.9°C 27.1°F-2.7°C 23% 6.9 mph S11.1 kmh S 10.1 mph16.3 kmh -338605.1 mb 0.00 in0.0 mm 0.00 in/hr0.0 mm/hr 0.00 in0.0 mm
02:07 AM 66.0°F18.9°C 27.1°F-2.7°C 23% 6.9 mph S11.1 kmh S 6.9 mph11.1 kmh -338605.1 mb 0.00 in0.0 mm 0.00 in/hr0.0 mm/hr 0.00 in0.0 mm
02:12 AM 66.0°F18.9°C 27.1°F-2.7°C 23% 6.9 mph SSW11.1 kmh SSW 6.9 mph11.1 kmh -338605.1 mb 0.00 in0.0 mm 0.00 in/hr0.0 mm/hr 0.00 in0.0 mm
02:17 AM 66.0°F18.9°C 27.1°F-2.7°C 23% 6.9 mph S11.1 kmh S 6.9 mph11.1 kmh -338605.1 mb 0.00 in0.0 mm 0.00 in/hr0.0 mm/hr 0.00 in0.0 mm
02:22 AM 65.8°F18.8°C 27.0°F-2.8°C 23% 6.0 mph SW9.7 kmh SW 6.0 mph9.7 kmh -338605.1 mb 0.00 in0.0 mm 0.00 in/hr0.0 mm/hr 0.00 in0.0 mm
02:27 AM 65.8°F18.8°C 27.0°F-2.8°C 23% 6.0 mph SSW9.7 kmh SSW 6.0 mph9.7 kmh -338605.1 mb 0.00 in0.0 mm 0.00 in/hr0.0 mm/hr 0.00 in0.0 mm
02:32 AM 65.7°F18.7°C 26.8°F-2.9°C 23% 6.0 mph SSW9.7 kmh SSW 4.0 mph6.4 kmh -338605.1 mb 0.00 in0.0 mm 0.00 in/hr0.0 mm/hr 0.00 in0.0 mm
02:37 AM 65.7°F18.7°C 26.8°F-2.9°C 23% 6.0 mph SW9.7 kmh SW 4.9 mph7.9 kmh -338605.1 mb 0.00 in0.0 mm 0.00 in/hr0.0 mm/hr 0.00 in0.0 mm
02:42 AM 65.5°F18.6°C 26.8°F-2.9°C 23% 4.9 mph SSW7.9 kmh SSW 4.0 mph6.4 kmh -338605.1 mb 0.00 in0.0 mm 0.00 in/hr0.0 mm/hr 0.00 in0.0 mm
02:47 AM 65.5°F18.6°C 26.8°F-2.9°C 23% 4.9 mph S7.9 kmh S 4.0 mph6.4 kmh -338605.1 mb 0.00 in0.0 mm 0.00 in/hr0.0 mm/hr 0.00 in0.0 mm
02:52 AM 65.3°F18.5°C 27.5°F-2.5°C 24% 4.0 mph S6.4 kmh S 2.9 mph4.7 kmh -338605.1 mb 0.00 in0.0 mm 0.00 in/hr0.0 mm/hr 0.00 in0.0 mm
02:57 AM 65.1°F18.4°C 27.5°F-2.5°C 24% 4.0 mph SSE6.4 kmh SSE 6.0 mph9.7 kmh -338605.1 mb 0.00 in0.0 mm 0.00 in/hr0.0 mm/hr 0.00 in0.0 mm
03:02 AM 65.1°F18.4°C 27.5°F-2.5°C 24% 4.9 mph S7.9 kmh S 6.9 mph11.1 kmh -338605.1 mb 0.00 in0.0 mm 0.00 in/hr0.0 mm/hr 0.00 in0.0 mm
03:07 AM 65.5°F18.6°C 27.7°F-2.4°C 24% 6.0 mph S9.7 kmh S 4.0 mph6.4 kmh -338605.1 mb 0.00 in0.0 mm 0.00 in/hr0.0 mm/hr 0.00 in0.0 mm
03:12 AM 65.7°F18.7°C 28.9°F-1.7°C 25% 6.9 mph SW11.1 kmh SW 6.0 mph9.7 kmh -338605.1 mb 0.00 in0.0 mm 0.00 in/hr0.0 mm/hr 0.00 in0.0 mm
03:17 AM 65.8°F18.8°C 28.0°F-2.2°C 24% 6.9 mph SW11.1 kmh SW 8.9 mph14.3 kmh -338605.1 mb 0.00 in0.0 mm 0.00 in/hr0.0 mm/hr 0.00 in0.0 mm
03:22 AM 66.0°F18.9°C 28.2°F-2.1°C 24% 6.9 mph S11.1 kmh S 4.0 mph6.4 kmh -338605.1 mb 0.00 in0.0 mm 0.00 in/hr0.0 mm/hr 0.00 in0.0 mm
03:27 AM 66.4°F19.1°C 28.4°F-2.0°C 24% 6.0 mph S9.7 kmh S 4.9 mph7.9 kmh -338605.1 mb 0.00 in0.0 mm 0.00 in/hr0.0 mm/hr 0.00 in0.0 mm
03:32 AM 66.2°F19.0°C 28.4°F-2.0°C 24% 4.9 mph SSW7.9 kmh SSW 6.0 mph9.7 kmh -338605.1 mb 0.00 in0.0 mm 0.00 in/hr0.0 mm/hr 0.00 in0.0 mm
03:37 AM 66.4°F19.1°C 28.4°F-2.0°C 24% 6.0 mph SSW9.7 kmh SSW 6.9 mph11.1 kmh -338605.1 mb 0.00 in0.0 mm 0.00 in/hr0.0 mm/hr 0.00 in0.0 mm
03:42 AM 66.4°F19.1°C 28.4°F-2.0°C 24% 6.9 mph SW11.1 kmh SW 8.1 mph13.0 kmh -338605.1 mb 0.00 in0.0 mm 0.00 in/hr0.0 mm/hr 0.00 in0.0 mm
03:47 AM 66.6°F19.2°C 29.7°F-1.3°C 25% 8.9 mph SW14.3 kmh SW 17.9 mph28.8 kmh -338605.1 mb 0.00 in0.0 mm 0.00 in/hr0.0 mm/hr 0.00 in0.0 mm
03:52 AM 66.6°F19.2°C 29.7°F-1.3°C 25% 11.0 mph SW17.7 kmh SW 13.0 mph20.9 kmh -338605.1 mb 0.00 in0.0 mm 0.00 in/hr0.0 mm/hr 0.00 in0.0 mm
03:57 AM 66.6°F19.2°C 29.7°F-1.3°C 25% 10.1 mph SW16.3 kmh SW 6.0 mph9.7 kmh -338605.1 mb 0.00 in0.0 mm 0.00 in/hr0.0 mm/hr 0.00 in0.0 mm
04:02 AM 66.4°F19.1°C 29.5°F-1.4°C 25% 8.1 mph SW13.0 kmh SW 6.9 mph11.1 kmh -338605.1 mb 0.00 in0.0 mm 0.00 in/hr0.0 mm/hr 0.00 in0.0 mm
04:07 AM 66.2°F19.0°C 29.3°F-1.5°C 25% 6.0 mph SSW9.7 kmh SSW 6.0 mph9.7 kmh -338605.1 mb 0.00 in0.0 mm 0.00 in/hr0.0 mm/hr 0.00 in0.0 mm
04:12 AM 65.8°F18.8°C 30.0°F-1.1°C 26% 4.9 mph SW7.9 kmh SW 4.0 mph6.4 kmh -338605.1 mb 0.00 in0.0 mm 0.00 in/hr0.0 mm/hr 0.00 in0.0 mm
04:17 AM 65.7°F18.7°C 30.7°F-0.7°C 27% 4.9 mph S7.9 kmh S 4.9 mph7.9 kmh -338605.1 mb 0.00 in0.0 mm 0.00 in/hr0.0 mm/hr 0.00 in0.0 mm
04:22 AM 65.3°F18.5°C 30.4°F-0.9°C 27% 4.9 mph S7.9 kmh S 4.9 mph7.9 kmh -338605.1 mb 0.00 in0.0 mm 0.00 in/hr0.0 mm/hr 0.00 in0.0 mm
04:27 AM 64.9°F18.3°C 31.1°F-0.5°C 28% 4.9 mph S7.9 kmh S 6.9 mph11.1 kmh -338605.1 mb 0.00 in0.0 mm 0.00 in/hr0.0 mm/hr 0.00 in0.0 mm
04:32 AM 64.8°F18.2°C 30.9°F-0.6°C 28% 6.0 mph S9.7 kmh S 6.9 mph11.1 kmh -338605.1 mb 0.00 in0.0 mm 0.00 in/hr0.0 mm/hr 0.00 in0.0 mm
04:37 AM 64.8°F18.2°C 31.8°F-0.1°C 29% 6.9 mph S11.1 kmh S 6.0 mph9.7 kmh -338605.1 mb 0.00 in0.0 mm 0.00 in/hr0.0 mm/hr 0.00 in0.0 mm
04:42 AM 64.8°F18.2°C 32.5°F0.3°C 30% 6.9 mph S11.1 kmh S 6.0 mph9.7 kmh -338605.1 mb 0.00 in0.0 mm 0.00 in/hr0.0 mm/hr 0.00 in0.0 mm
04:47 AM 64.8°F18.2°C 33.4°F0.8°C 31% 8.1 mph S13.0 kmh S 4.9 mph7.9 kmh -338605.1 mb 0.00 in0.0 mm 0.00 in/hr0.0 mm/hr 0.00 in0.0 mm
04:52 AM 64.8°F18.2°C 35.1°F1.7°C 33% 8.9 mph S14.3 kmh S 6.9 mph11.1 kmh -338605.1 mb 0.00 in0.0 mm 0.00 in/hr0.0 mm/hr 0.00 in0.0 mm
04:57 AM 64.8°F18.2°C 35.1°F1.7°C 33% 8.9 mph SSW14.3 kmh SSW 6.9 mph11.1 kmh -338605.1 mb 0.00 in0.0 mm 0.00 in/hr0.0 mm/hr 0.00 in0.0 mm
05:02 AM 64.6°F18.1°C 35.6°F2.0°C 34% 6.9 mph SW11.1 kmh SW 4.9 mph7.9 kmh -338605.1 mb 0.00 in0.0 mm 0.00 in/hr0.0 mm/hr 0.00 in0.0 mm
05:07 AM 64.2°F17.9°C 33.8°F1.0°C 32% 4.9 mph W7.9 kmh W 4.0 mph6.4 kmh -338605.1 mb 0.00 in0.0 mm 0.00 in/hr0.0 mm/hr 0.00 in0.0 mm
05:12 AM 63.9°F17.7°C 31.8°F-0.1°C 30% 4.0 mph W6.4 kmh W 2.9 mph4.7 kmh -338605.1 mb 0.00 in0.0 mm 0.00 in/hr0.0 mm/hr 0.00 in0.0 mm
05:17 AM 63.3°F17.4°C 32.2°F0.1°C 31% 2.9 mph WSW4.7 kmh WSW 4.0 mph6.4 kmh -338605.1 mb 0.00 in0.0 mm 0.00 in/hr0.0 mm/hr 0.00 in0.0 mm
05:22 AM 63.0°F17.2°C 33.4°F0.8°C 33% 2.9 mph NNW4.7 kmh NNW 4.9 mph7.9 kmh -338605.1 mb 0.00 in0.0 mm 0.00 in/hr0.0 mm/hr 0.00 in0.0 mm
05:27 AM 62.4°F16.9°C 31.5°F-0.3°C 31% 4.0 mph N6.4 kmh N 4.0 mph6.4 kmh -338605.1 mb 0.00 in0.0 mm 0.00 in/hr0.0 mm/hr 0.00 in0.0 mm
05:32 AM 61.9°F16.6°C 31.6°F-0.2°C 32% 4.0 mph N6.4 kmh N 6.0 mph9.7 kmh -338605.1 mb 0.00 in0.0 mm 0.00 in/hr0.0 mm/hr 0.00 in0.0 mm
05:37 AM 61.3°F16.3°C 32.0°F0.0°C 33% 4.0 mph NNW6.4 kmh NNW 4.9 mph7.9 kmh -338605.1 mb 0.00 in0.0 mm 0.00 in/hr0.0 mm/hr 0.00 in0.0 mm
05:42 AM 60.8°F16.0°C 32.2°F0.1°C 34% 4.0 mph WNW6.4 kmh WNW 4.0 mph6.4 kmh -338605.1 mb 0.00 in0.0 mm 0.00 in/hr0.0 mm/hr 0.00 in0.0 mm
05:47 AM 60.4°F15.8°C 32.7°F0.4°C 35% 2.9 mph NW4.7 kmh NW 4.9 mph7.9 kmh -338605.1 mb 0.00 in0.0 mm 0.00 in/hr0.0 mm/hr 0.00 in0.0 mm
05:52 AM 60.1°F15.6°C 32.4°F0.2°C 35% 4.0 mph NW6.4 kmh NW 8.1 mph13.0 kmh -338605.1 mb 0.00 in0.0 mm 0.00 in/hr0.0 mm/hr 0.00 in0.0 mm
05:57 AM 59.5°F15.3°C 33.3°F0.7°C 37% 6.0 mph NW9.7 kmh NW 2.9 mph4.7 kmh -338605.1 mb 0.00 in0.0 mm 0.00 in/hr0.0 mm/hr 0.00 in0.0 mm
06:02 AM 59.5°F15.3°C 34.0°F1.1°C 38% 4.9 mph NW7.9 kmh NW 4.9 mph7.9 kmh -338605.1 mb 0.00 in0.0 mm 0.00 in/hr0.0 mm/hr 0.00 in0.0 mm
06:07 AM 59.4°F15.2°C 33.8°F1.0°C 38% 4.9 mph NW7.9 kmh NW 4.9 mph7.9 kmh -338605.1 mb 0.00 in0.0 mm 0.00 in/hr0.0 mm/hr 0.00 in0.0 mm
06:12 AM 59.0°F15.0°C 34.2°F1.2°C 39% 4.9 mph NW7.9 kmh NW 4.0 mph6.4 kmh -338605.1 mb 0.00 in0.0 mm 0.00 in/hr0.0 mm/hr 0.00 in0.0 mm
06:17 AM 58.8°F14.9°C 34.0°F1.1°C 39% 4.9 mph NW7.9 kmh NW 4.9 mph7.9 kmh -338605.1 mb 0.00 in0.0 mm 0.00 in/hr0.0 mm/hr 0.00 in0.0 mm
06:22 AM 58.8°F14.9°C 34.5°F1.4°C 40% 4.0 mph WNW6.4 kmh WNW 4.0 mph6.4 kmh -338605.1 mb 0.00 in0.0 mm 0.00 in/hr0.0 mm/hr 0.00 in0.0 mm
06:27 AM 58.8°F14.9°C 34.5°F1.4°C 40% 4.0 mph W6.4 kmh W 4.9 mph7.9 kmh -338605.1 mb 0.00 in0.0 mm 0.00 in/hr0.0 mm/hr 0.00 in0.0 mm
06:32 AM 59.2°F15.1°C 34.9°F1.6°C 40% 4.9 mph W7.9 kmh W 4.9 mph7.9 kmh -338605.1 mb 0.00 in0.0 mm 0.00 in/hr0.0 mm/hr 0.00 in0.0 mm
06:37 AM 59.4°F15.2°C 34.3°F1.3°C 39% 4.9 mph W7.9 kmh W 4.0 mph6.4 kmh -338605.1 mb 0.00 in0.0 mm 0.00 in/hr0.0 mm/hr 0.00 in0.0 mm
06:42 AM 59.5°F15.3°C 34.5°F1.4°C 39% 4.0 mph W6.4 kmh W 2.9 mph4.7 kmh -338605.1 mb 0.00 in0.0 mm 0.00 in/hr0.0 mm/hr 0.00 in0.0 mm
06:47 AM 59.4°F15.2°C 34.3°F1.3°C 39% 2.9 mph WSW4.7 kmh WSW 2.0 mph3.2 kmh -338605.1 mb 0.00 in0.0 mm 0.00 in/hr0.0 mm/hr 0.00 in0.0 mm
06:52 AM 59.2°F15.1°C 34.2°F1.2°C 39% 2.0 mph W3.2 kmh W 2.9 mph4.7 kmh -338605.1 mb 0.00 in0.0 mm 0.00 in/hr0.0 mm/hr 0.00 in0.0 mm
06:57 AM 59.2°F15.1°C 34.9°F1.6°C 40% 2.0 mph W3.2 kmh W 0.9 mph1.4 kmh -338605.1 mb 0.00 in0.0 mm 0.00 in/hr0.0 mm/hr 0.00 in0.0 mm
07:02 AM 59.0°F15.0°C 34.2°F1.2°C 39% 2.0 mph W3.2 kmh W -- -338605.1 mb 0.00 in0.0 mm 0.00 in/hr0.0 mm/hr 0.00 in0.0 mm
07:07 AM 58.6°F14.8°C 34.3°F1.3°C 40% 2.0 mph SSW3.2 kmh SSW 2.0 mph3.2 kmh -338605.1 mb 0.00 in0.0 mm 0.00 in/hr0.0 mm/hr 0.00 in0.0 mm
07:12 AM 58.5°F14.7°C 34.2°F1.2°C 40% 2.0 mph WSW3.2 kmh WSW 4.0 mph6.4 kmh -338605.1 mb 0.00 in0.0 mm 0.00 in/hr0.0 mm/hr 0.00 in0.0 mm
07:17 AM 58.3°F14.6°C 34.0°F1.1°C 40% 2.9 mph WSW4.7 kmh WSW 2.9 mph4.7 kmh -338605.1 mb 0.00 in0.0 mm 0.00 in/hr0.0 mm/hr 0.00 in0.0 mm
07:22 AM 57.9°F14.4°C 33.8°F1.0°C 40% 2.9 mph WSW4.7 kmh WSW 4.0 mph6.4 kmh -338605.1 mb 0.00 in0.0 mm 0.00 in/hr0.0 mm/hr 0.00 in0.0 mm
07:27 AM 57.7°F14.3°C 33.6°F0.9°C 40% 2.9 mph WSW4.7 kmh WSW 4.0 mph6.4 kmh -338605.1 mb 0.00 in0.0 mm 0.00 in/hr0.0 mm/hr 0.00 in0.0 mm
07:32 AM 57.6°F14.2°C 33.4°F0.8°C 40% 4.0 mph WSW6.4 kmh WSW 6.0 mph9.7 kmh -338605.1 mb 0.00 in0.0 mm 0.00 in/hr0.0 mm/hr 0.00 in0.0 mm
07:37 AM 57.4°F14.1°C 33.3°F0.7°C 40% 4.9 mph W7.9 kmh W 6.0 mph9.7 kmh -338605.1 mb 0.00 in0.0 mm 0.00 in/hr0.0 mm/hr 0.00 in0.0 mm
07:42 AM 57.2°F14.0°C 33.6°F0.9°C 41% 6.0 mph SW9.7 kmh SW 4.9 mph7.9 kmh -338605.1 mb 0.00 in0.0 mm 0.00 in/hr0.0 mm/hr 0.00 in0.0 mm
07:47 AM 57.4°F14.1°C 33.8°F1.0°C 41% 6.0 mph WSW9.7 kmh WSW 4.9 mph7.9 kmh -338605.1 mb 0.00 in0.0 mm 0.00 in/hr0.0 mm/hr 0.00 in0.0 mm
07:52 AM 57.4°F14.1°C 34.5°F1.4°C 42% 6.0 mph WSW9.7 kmh WSW 4.0 mph6.4 kmh -338605.1 mb 0.00 in0.0 mm 0.00 in/hr0.0 mm/hr 0.00 in0.0 mm
07:57 AM 57.6°F14.2°C 34.7°F1.5°C 42% 6.0 mph WSW9.7 kmh WSW 4.9 mph7.9 kmh -338605.1 mb 0.00 in0.0 mm 0.00 in/hr0.0 mm/hr 0.00 in0.0 mm
08:02 AM 57.7°F14.3°C 34.2°F1.2°C 41% 4.9 mph WSW7.9 kmh WSW 2.0 mph3.2 kmh -338605.1 mb 0.00 in0.0 mm 0.00 in/hr0.0 mm/hr 0.00 in0.0 mm
08:07 AM 57.7°F14.3°C 34.2°F1.2°C 41% 2.9 mph SW4.7 kmh SW 6.0 mph9.7 kmh -338605.1 mb 0.00 in0.0 mm 0.00 in/hr0.0 mm/hr 0.00 in0.0 mm
08:12 AM 58.3°F14.6°C 34.0°F1.1°C 40% 4.0 mph W6.4 kmh W 6.0 mph9.7 kmh -338605.1 mb 0.00 in0.0 mm 0.00 in/hr0.0 mm/hr 0.00 in0.0 mm
08:17 AM 58.8°F14.9°C 33.3°F0.7°C 38% 6.0 mph WNW9.7 kmh WNW 4.9 mph7.9 kmh -338605.1 mb 0.00 in0.0 mm 0.00 in/hr0.0 mm/hr 0.00 in0.0 mm
08:22 AM 59.4°F15.2°C 34.3°F1.3°C 39% 4.9 mph WNW7.9 kmh WNW 2.0 mph3.2 kmh -338605.1 mb 0.00 in0.0 mm 0.00 in/hr0.0 mm/hr 0.00 in0.0 mm
08:27 AM 59.4°F15.2°C 34.3°F1.3°C 39% 2.0 mph WNW3.2 kmh WNW -- -338605.1 mb 0.00 in0.0 mm 0.00 in/hr0.0 mm/hr 0.00 in0.0 mm
08:32 AM 59.7°F15.4°C 34.7°F1.5°C 39% 0.9 mph WNW1.4 kmh WNW 0.9 mph1.4 kmh -338605.1 mb 0.00 in0.0 mm 0.00 in/hr0.0 mm/hr 0.00 in0.0 mm
08:37 AM 60.1°F15.6°C 33.8°F1.0°C 37% 0.9 mph WNW1.4 kmh WNW 2.9 mph4.7 kmh -338605.1 mb 0.00 in0.0 mm 0.00 in/hr0.0 mm/hr 0.00 in0.0 mm
08:42 AM 60.4°F15.8°C 34.0°F1.1°C 37% 2.9 mph WNW4.7 kmh WNW 2.9 mph4.7 kmh -338605.1 mb 0.00 in0.0 mm 0.00 in/hr0.0 mm/hr 0.00 in0.0 mm
08:47 AM 60.8°F16.0°C 34.3°F1.3°C 37% 2.9 mph WNW4.7 kmh WNW 4.0 mph6.4 kmh -338605.1 mb 0.00 in0.0 mm 0.00 in/hr0.0 mm/hr 0.00 in0.0 mm
08:52 AM 61.3°F16.3°C 36.1°F2.3°C 39% 2.9 mph WNW4.7 kmh WNW 4.9 mph7.9 kmh -338605.1 mb 0.00 in0.0 mm 0.00 in/hr0.0 mm/hr 0.00 in0.0 mm
08:57 AM 61.7°F16.5°C 35.8°F2.1°C 38% 2.9 mph WNW4.7 kmh WNW 4.0 mph6.4 kmh -338605.1 mb 0.00 in0.0 mm 0.00 in/hr0.0 mm/hr 0.00 in0.0 mm
09:02 AM 62.1°F16.7°C 36.1°F2.3°C 38% 2.9 mph WNW4.7 kmh WNW 4.9 mph7.9 kmh -338605.1 mb 0.00 in0.0 mm 0.00 in/hr0.0 mm/hr 0.00 in0.0 mm
09:07 AM 62.2°F16.8°C 36.3°F2.4°C 38% 4.0 mph WNW6.4 kmh WNW 4.0 mph6.4 kmh -338605.1 mb 0.00 in0.0 mm 0.00 in/hr0.0 mm/hr 0.00 in0.0 mm
09:12 AM 62.6°F17.0°C 36.0°F2.2°C 37% 4.0 mph WNW6.4 kmh WNW 2.0 mph3.2 kmh -338605.1 mb 0.00 in0.0 mm 0.00 in/hr0.0 mm/hr 0.00 in0.0 mm
09:17 AM 63.1°F17.3°C 37.0°F2.8°C 38% 2.0 mph WNW3.2 kmh WNW 2.9 mph4.7 kmh -338605.1 mb 0.00 in0.0 mm 0.00 in/hr0.0 mm/hr 0.00 in0.0 mm
09:22 AM 63.7°F17.6°C 37.6°F3.1°C 38% 2.0 mph WNW3.2 kmh WNW 0.9 mph1.4 kmh -338605.1 mb 0.00 in0.0 mm 0.00 in/hr0.0 mm/hr 0.00 in0.0 mm
09:27 AM 64.0°F17.8°C 38.7°F3.7°C 39% 0.9 mph WNW1.4 kmh WNW -- -338605.1 mb 0.00 in0.0 mm 0.00 in/hr0.0 mm/hr 0.00 in0.0 mm
09:32 AM 64.2°F17.9°C 37.4°F3.0°C 37% 0.9 mph N1.4 kmh N 2.9 mph4.7 kmh -338605.1 mb 0.00 in0.0 mm 0.00 in/hr0.0 mm/hr 0.00 in0.0 mm
09:37 AM 65.5°F18.6°C 37.8°F3.2°C 36% 2.0 mph N3.2 kmh N 2.9 mph4.7 kmh -338605.1 mb 0.00 in0.0 mm 0.00 in/hr0.0 mm/hr 0.00 in0.0 mm
09:42 AM 66.4°F19.1°C 36.3°F2.4°C 33% 2.9 mph NNE4.7 kmh NNE 2.9 mph4.7 kmh -338605.1 mb 0.00 in0.0 mm 0.00 in/hr0.0 mm/hr 0.00 in0.0 mm
09:47 AM 66.7°F19.3°C 37.4°F3.0°C 34% 2.0 mph NNE3.2 kmh NNE 0.9 mph1.4 kmh -338605.1 mb 0.00 in0.0 mm 0.00 in/hr0.0 mm/hr 0.00 in0.0 mm
09:52 AM 67.5°F19.7°C 37.4°F3.0°C 33% 2.0 mph E3.2 kmh E -- -338605.1 mb 0.00 in0.0 mm 0.00 in/hr0.0 mm/hr 0.00 in0.0 mm
09:57 AM 67.6°F19.8°C 37.6°F3.1°C 33% 2.0 mph ENE3.2 kmh ENE 2.9 mph4.7 kmh -338605.1 mb 0.00 in0.0 mm 0.00 in/hr0.0 mm/hr 0.00 in0.0 mm
10:02 AM 67.8°F19.9°C 36.9°F2.7°C 32% 0.9 mph ENE1.4 kmh ENE 0.9 mph1.4 kmh -338605.1 mb 0.00 in0.0 mm 0.00 in/hr0.0 mm/hr 0.00 in0.0 mm
10:07 AM 68.4°F20.2°C 37.4°F3.0°C 32% 0.9 mph ENE1.4 kmh ENE 2.0 mph3.2 kmh -338605.1 mb 0.00 in0.0 mm 0.00 in/hr0.0 mm/hr 0.00 in0.0 mm
10:12 AM 68.5°F20.3°C 37.6°F3.1°C 32% 2.0 mph NNE3.2 kmh NNE 0.9 mph1.4 kmh -338605.1 mb 0.00 in0.0 mm 0.00 in/hr0.0 mm/hr 0.00 in0.0 mm
10:17 AM 68.5°F20.3°C 37.6°F3.1°C 32% 2.9 mph NNE4.7 kmh NNE 0.9 mph1.4 kmh -338605.1 mb 0.00 in0.0 mm 0.00 in/hr0.0 mm/hr 0.00 in0.0 mm
10:22 AM 69.1°F20.6°C 37.9°F3.3°C 32% 2.0 mph NNE3.2 kmh NNE 0.9 mph1.4 kmh -338605.1 mb 0.00 in0.0 mm 0.00 in/hr0.0 mm/hr 0.00 in0.0 mm
10:27 AM 69.4°F20.8°C 38.3°F3.5°C 32% 0.9 mph NNE1.4 kmh NNE -- -338605.1 mb 0.00 in0.0 mm 0.00 in/hr0.0 mm/hr 0.00 in0.0 mm
10:32 AM 69.6°F20.9°C 38.5°F3.6°C 32% 0.9 mph NNE1.4 kmh NNE 0.9 mph1.4 kmh -338605.1 mb 0.00 in0.0 mm 0.00 in/hr0.0 mm/hr 0.00 in0.0 mm
10:37 AM 70.9°F21.6°C 40.3°F4.6°C 33% 2.9 mph SSW4.7 kmh SSW 12.1 mph19.5 kmh -338605.1 mb 0.00 in0.0 mm 0.00 in/hr0.0 mm/hr 0.00 in0.0 mm
10:42 AM 71.8°F22.1°C 40.3°F4.6°C 32% 6.9 mph SSW11.1 kmh SSW 10.1 mph16.3 kmh -338605.1 mb 0.00 in0.0 mm 0.00 in/hr0.0 mm/hr 0.00 in0.0 mm
10:47 AM 72.3°F22.4°C 40.8°F4.9°C 32% 8.9 mph SSW14.3 kmh SSW 13.0 mph20.9 kmh -338605.1 mb 0.00 in0.0 mm 0.00 in/hr0.0 mm/hr 0.00 in0.0 mm
10:52 AM 73.4°F23.0°C 41.0°F5.0°C 31% 10.1 mph SW16.3 kmh SW 11.0 mph17.7 kmh -338605.1 mb 0.00 in0.0 mm 0.00 in/hr0.0 mm/hr 0.00 in0.0 mm
10:57 AM 74.1°F23.4°C 41.5°F5.3°C 31% 8.9 mph S14.3 kmh S 14.1 mph22.7 kmh -338605.1 mb 0.00 in0.0 mm 0.00 in/hr0.0 mm/hr 0.00 in0.0 mm
11:02 AM 74.5°F23.6°C 41.9°F5.5°C 31% 8.9 mph SSW14.3 kmh SSW 10.1 mph16.3 kmh -338605.1 mb 0.00 in0.0 mm 0.00 in/hr0.0 mm/hr 0.00 in0.0 mm
11:07 AM 74.5°F23.6°C 41.9°F5.5°C 31% 10.1 mph SW16.3 kmh SW 10.1 mph16.3 kmh -338605.1 mb 0.00 in0.0 mm 0.00 in/hr0.0 mm/hr 0.00 in0.0 mm
11:12 AM 74.5°F23.6°C 41.9°F5.5°C 31% 11.0 mph SW17.7 kmh SW 12.1 mph19.5 kmh -338605.1 mb 0.00 in0.0 mm 0.00 in/hr0.0 mm/hr 0.00 in0.0 mm
11:17 AM 74.1°F23.4°C 41.5°F5.3°C 31% 12.1 mph SSW19.5 kmh SSW 6.9 mph11.1 kmh -338605.1 mb 0.00 in0.0 mm 0.00 in/hr0.0 mm/hr 0.00 in0.0 mm
11:22 AM 74.1°F23.4°C 41.5°F5.3°C 31% 12.1 mph SW19.5 kmh SW 4.9 mph7.9 kmh -338605.1 mb 0.00 in0.0 mm 0.00 in/hr0.0 mm/hr 0.00 in0.0 mm
11:27 AM 74.1°F23.4°C 40.6°F4.8°C 30% 10.1 mph SW16.3 kmh SW 8.9 mph14.3 kmh -338605.1 mb 0.00 in0.0 mm 0.00 in/hr0.0 mm/hr 0.00 in0.0 mm
11:32 AM 74.1°F23.4°C 40.6°F4.8°C 30% 11.0 mph SW17.7 kmh SW 11.0 mph17.7 kmh -338605.1 mb 0.00 in0.0 mm 0.00 in/hr0.0 mm/hr 0.00 in0.0 mm
11:37 AM 74.3°F23.5°C 40.8°F4.9°C 30% 11.0 mph WSW17.7 kmh WSW 8.1 mph13.0 kmh -338605.1 mb 0.00 in0.0 mm 0.00 in/hr0.0 mm/hr 0.00 in0.0 mm
11:42 AM 74.3°F23.5°C 39.9°F4.4°C 29% 6.9 mph S11.1 kmh S 4.0 mph6.4 kmh -338605.1 mb 0.00 in0.0 mm 0.00 in/hr0.0 mm/hr 0.00 in0.0 mm
11:47 AM 74.1°F23.4°C 39.9°F4.4°C 29% 4.9 mph SSW7.9 kmh SSW 4.0 mph6.4 kmh -338605.1 mb 0.00 in0.0 mm 0.00 in/hr0.0 mm/hr 0.00 in0.0 mm
11:52 AM 74.5°F23.6°C 40.1°F4.5°C 29% 6.9 mph S11.1 kmh S 13.0 mph20.9 kmh -338605.1 mb 0.00 in0.0 mm 0.00 in/hr0.0 mm/hr 0.00 in0.0 mm
11:57 AM 74.5°F23.6°C 40.1°F4.5°C 29% 11.0 mph S17.7 kmh S 12.1 mph19.5 kmh -338605.1 mb 0.00 in0.0 mm 0.00 in/hr0.0 mm/hr 0.00 in0.0 mm
12:02 PM 74.1°F23.4°C 39.9°F4.4°C 29% 13.0 mph SSW20.9 kmh SSW 14.1 mph22.7 kmh -338605.1 mb 0.00 in0.0 mm 0.00 in/hr0.0 mm/hr 0.00 in0.0 mm
12:07 PM 74.1°F23.4°C 39.9°F4.4°C 29% 13.0 mph S20.9 kmh S 6.9 mph11.1 kmh -338605.1 mb 0.00 in0.0 mm 0.00 in/hr0.0 mm/hr 0.00 in0.0 mm
12:12 PM 74.1°F23.4°C 39.9°F4.4°C 29% 12.1 mph S19.5 kmh S 15.0 mph24.1 kmh -338605.1 mb 0.00 in0.0 mm 0.00 in/hr0.0 mm/hr 0.00 in0.0 mm
12:17 PM 74.5°F23.6°C 40.1°F4.5°C 29% 12.1 mph S19.5 kmh S 11.0 mph17.7 kmh -338605.1 mb 0.00 in0.0 mm 0.00 in/hr0.0 mm/hr 0.00 in0.0 mm
12:22 PM 74.5°F23.6°C 40.1°F4.5°C 29% 11.0 mph S17.7 kmh S 17.9 mph28.8 kmh -338605.1 mb 0.00 in0.0 mm 0.00 in/hr0.0 mm/hr 0.00 in0.0 mm
12:27 PM 74.3°F23.5°C 39.9°F4.4°C 29% 12.1 mph SW19.5 kmh SW 11.0 mph17.7 kmh -338605.1 mb 0.00 in0.0 mm 0.00 in/hr0.0 mm/hr 0.00 in0.0 mm
12:32 PM 74.1°F23.4°C 39.9°F4.4°C 29% 15.0 mph S24.1 kmh S 12.1 mph19.5 kmh -338605.1 mb 0.00 in0.0 mm 0.00 in/hr0.0 mm/hr 0.00 in0.0 mm
12:37 PM 73.9°F23.3°C 39.7°F4.3°C 29% 15.0 mph SSW24.1 kmh SSW 12.1 mph19.5 kmh -338605.1 mb 0.00 in0.0 mm 0.00 in/hr0.0 mm/hr 0.00 in0.0 mm
12:42 PM 73.9°F23.3°C 39.7°F4.3°C 29% 14.1 mph SSW22.7 kmh SSW 23.0 mph37.0 kmh -338605.1 mb 0.00 in0.0 mm 0.00 in/hr0.0 mm/hr 0.00 in0.0 mm
12:47 PM 74.1°F23.4°C 39.0°F3.9°C 28% 15.0 mph SW24.1 kmh SW 12.1 mph19.5 kmh -338605.1 mb 0.00 in0.0 mm 0.00 in/hr0.0 mm/hr 0.00 in0.0 mm
12:52 PM 74.7°F23.7°C 39.4°F4.1°C 28% 15.0 mph SW24.1 kmh SW 12.1 mph19.5 kmh -338605.1 mb 0.00 in0.0 mm 0.00 in/hr0.0 mm/hr 0.00 in0.0 mm
12:57 PM 74.8°F23.8°C 39.6°F4.2°C 28% 14.1 mph SW22.7 kmh SW 14.1 mph22.7 kmh -338605.1 mb 0.00 in0.0 mm 0.00 in/hr0.0 mm/hr 0.00 in0.0 mm
01:02 PM 74.7°F23.7°C 39.4°F4.1°C 28% 14.1 mph SSW22.7 kmh SSW 17.9 mph28.8 kmh -338605.1 mb 0.00 in0.0 mm 0.00 in/hr0.0 mm/hr 0.00 in0.0 mm
01:07 PM 74.8°F23.8°C 39.6°F4.2°C 28% 15.0 mph S24.1 kmh S 21.0 mph33.8 kmh -338605.1 mb 0.00 in0.0 mm 0.00 in/hr0.0 mm/hr 0.00 in0.0 mm
01:12 PM 75.0°F23.9°C 38.8°F3.8°C 27% 16.1 mph SSW25.9 kmh SSW 19.9 mph32.0 kmh -338605.1 mb 0.00 in0.0 mm 0.00 in/hr0.0 mm/hr 0.00 in0.0 mm
01:17 PM 75.4°F24.1°C 39.0°F3.9°C 27% 15.0 mph SW24.1 kmh SW 14.1 mph22.7 kmh -338605.1 mb 0.00 in0.0 mm 0.00 in/hr0.0 mm/hr 0.00 in0.0 mm
01:22 PM 75.2°F24.0°C 38.8°F3.8°C 27% 15.0 mph S24.1 kmh S 11.0 mph17.7 kmh -338605.1 mb 0.00 in0.0 mm 0.00 in/hr0.0 mm/hr 0.00 in0.0 mm
01:27 PM 75.4°F24.1°C 39.0°F3.9°C 27% 13.0 mph WSW20.9 kmh WSW 16.1 mph25.9 kmh -338605.1 mb 0.00 in0.0 mm 0.00 in/hr0.0 mm/hr 0.00 in0.0 mm
01:32 PM 75.4°F24.1°C 38.1°F3.4°C 26% 13.0 mph SW20.9 kmh SW 6.9 mph11.1 kmh -338605.1 mb 0.00 in0.0 mm 0.00 in/hr0.0 mm/hr 0.00 in0.0 mm
01:37 PM 75.4°F24.1°C 39.0°F3.9°C 27% 12.1 mph SSW19.5 kmh SSW 8.9 mph14.3 kmh -338605.1 mb 0.00 in0.0 mm 0.00 in/hr0.0 mm/hr 0.00 in0.0 mm
01:42 PM 75.6°F24.2°C 38.3°F3.5°C 26% 11.0 mph SW17.7 kmh SW 15.0 mph24.1 kmh -338605.1 mb 0.00 in0.0 mm 0.00 in/hr0.0 mm/hr 0.00 in0.0 mm
01:47 PM 75.0°F23.9°C 37.8°F3.2°C 26% 12.1 mph SSW19.5 kmh SSW 8.1 mph13.0 kmh -338605.1 mb 0.00 in0.0 mm 0.00 in/hr0.0 mm/hr 0.00 in0.0 mm
01:52 PM 74.8°F23.8°C 38.7°F3.7°C 27% 13.0 mph S20.9 kmh S 13.0 mph20.9 kmh -338605.1 mb 0.00 in0.0 mm 0.00 in/hr0.0 mm/hr 0.00 in0.0 mm
01:57 PM 75.0°F23.9°C 38.8°F3.8°C 27% 13.0 mph SW20.9 kmh SW 17.9 mph28.8 kmh -338605.1 mb 0.00 in0.0 mm 0.00 in/hr0.0 mm/hr 0.00 in0.0 mm
02:02 PM 75.0°F23.9°C 39.7°F4.3°C 28% 12.1 mph SW19.5 kmh SW 8.9 mph14.3 kmh -338605.1 mb 0.00 in0.0 mm 0.00 in/hr0.0 mm/hr 0.00 in0.0 mm
02:07 PM 75.2°F24.0°C 38.8°F3.8°C 27% 10.1 mph SW16.3 kmh SW 8.9 mph14.3 kmh -338605.1 mb 0.00 in0.0 mm 0.00 in/hr0.0 mm/hr 0.00 in0.0 mm
02:12 PM 75.0°F23.9°C 39.7°F4.3°C 28% 10.1 mph SSW16.3 kmh SSW 2.9 mph4.7 kmh -338605.1 mb 0.00 in0.0 mm 0.00 in/hr0.0 mm/hr 0.00 in0.0 mm
02:17 PM 75.0°F23.9°C 40.6°F4.8°C 29% 8.9 mph SSW14.3 kmh SSW 10.1 mph16.3 kmh -338605.1 mb 0.00 in0.0 mm 0.00 in/hr0.0 mm/hr 0.00 in0.0 mm
02:22 PM 75.0°F23.9°C 40.6°F4.8°C 29% 8.1 mph SSW13.0 kmh SSW 16.1 mph25.9 kmh -338605.1 mb 0.00 in0.0 mm 0.00 in/hr0.0 mm/hr 0.00 in0.0 mm
02:27 PM 74.8°F23.8°C 40.5°F4.7°C 29% 10.1 mph WSW16.3 kmh WSW 16.1 mph25.9 kmh -338605.1 mb 0.00 in0.0 mm 0.00 in/hr0.0 mm/hr 0.00 in0.0 mm
02:32 PM 74.7°F23.7°C 40.3°F4.6°C 29% 12.1 mph S19.5 kmh S 16.1 mph25.9 kmh -338605.1 mb 0.00 in0.0 mm 0.00 in/hr0.0 mm/hr 0.00 in0.0 mm
02:37 PM 74.5°F23.6°C 40.1°F4.5°C 29% 12.1 mph SW19.5 kmh SW 16.1 mph25.9 kmh -338605.1 mb 0.00 in0.0 mm 0.00 in/hr0.0 mm/hr 0.00 in0.0 mm
02:42 PM 74.3°F23.5°C 40.8°F4.9°C 30% 13.0 mph SW20.9 kmh SW 12.1 mph19.5 kmh -338605.1 mb 0.00 in0.0 mm 0.00 in/hr0.0 mm/hr 0.00 in0.0 mm
02:47 PM 74.5°F23.6°C 41.0°F5.0°C 30% 14.1 mph SW22.7 kmh SW 16.1 mph25.9 kmh -338605.1 mb 0.00 in0.0 mm 0.00 in/hr0.0 mm/hr 0.00 in0.0 mm
02:52 PM 74.5°F23.6°C 41.0°F5.0°C 30% 15.0 mph SW24.1 kmh SW 14.1 mph22.7 kmh -338605.1 mb 0.00 in0.0 mm 0.00 in/hr0.0 mm/hr 0.00 in0.0 mm
02:57 PM 74.3°F23.5°C 40.8°F4.9°C 30% 14.1 mph S22.7 kmh S 17.9 mph28.8 kmh -338605.1 mb 0.00 in0.0 mm 0.00 in/hr0.0 mm/hr 0.00 in0.0 mm
03:02 PM 73.9°F23.3°C 40.5°F4.7°C 30% 14.1 mph S22.7 kmh S 10.1 mph16.3 kmh -338605.1 mb 0.00 in0.0 mm 0.00 in/hr0.0 mm/hr 0.00 in0.0 mm
03:07 PM 73.9°F23.3°C 41.4°F5.2°C 31% 14.1 mph S22.7 kmh S 10.1 mph16.3 kmh -338605.1 mb 0.00 in0.0 mm 0.00 in/hr0.0 mm/hr 0.00 in0.0 mm
03:12 PM 73.9°F23.3°C 41.4°F5.2°C 31% 15.0 mph S24.1 kmh S 23.9 mph38.5 kmh -338605.1 mb 0.00 in0.0 mm 0.00 in/hr0.0 mm/hr 0.00 in0.0 mm
03:17 PM 74.1°F23.4°C 41.5°F5.3°C 31% 16.1 mph SW25.9 kmh SW 8.1 mph13.0 kmh -338605.1 mb 0.00 in0.0 mm 0.00 in/hr0.0 mm/hr 0.00 in0.0 mm
03:22 PM 73.9°F23.3°C 41.4°F5.2°C 31% 17.0 mph S27.4 kmh S 17.9 mph28.8 kmh -338605.1 mb 0.00 in0.0 mm 0.00 in/hr0.0 mm/hr 0.00 in0.0 mm
03:27 PM 73.4°F23.0°C 41.7°F5.4°C 32% 17.0 mph S27.4 kmh S 34.0 mph54.7 kmh -338605.1 mb 0.00 in0.0 mm 0.00 in/hr0.0 mm/hr 0.00 in0.0 mm
03:32 PM 72.9°F22.7°C 41.4°F5.2°C 32% 19.9 mph S32.0 kmh S 31.1 mph50.1 kmh -338605.1 mb 0.00 in0.0 mm 0.00 in/hr0.0 mm/hr 0.00 in0.0 mm
03:37 PM 72.5°F22.5°C 41.0°F5.0°C 32% 25.1 mph SSW40.4 kmh SSW 23.0 mph37.0 kmh -338605.1 mb 0.00 in0.0 mm 0.00 in/hr0.0 mm/hr 0.00 in0.0 mm
03:42 PM 72.7°F22.6°C 41.2°F5.1°C 32% 21.9 mph SSW35.2 kmh SSW 15.0 mph24.1 kmh -338605.1 mb 0.00 in0.0 mm 0.00 in/hr0.0 mm/hr 0.00 in0.0 mm
03:47 PM 72.7°F22.6°C 41.2°F5.1°C 32% 17.9 mph S28.8 kmh S 21.9 mph35.2 kmh -338605.1 mb 0.00 in0.0 mm 0.00 in/hr0.0 mm/hr 0.00 in0.0 mm
03:52 PM 72.7°F22.6°C 41.2°F5.1°C 32% 14.1 mph SSW22.7 kmh SSW 19.9 mph32.0 kmh -338605.1 mb 0.00 in0.0 mm 0.00 in/hr0.0 mm/hr 0.00 in0.0 mm
03:57 PM 72.5°F22.5°C 41.0°F5.0°C 32% 15.0 mph SW24.1 kmh SW 16.1 mph25.9 kmh -338605.1 mb 0.00 in0.0 mm 0.00 in/hr0.0 mm/hr 0.00 in0.0 mm
04:02 PM 72.5°F22.5°C 41.0°F5.0°C 32% 15.0 mph SW24.1 kmh SW 14.1 mph22.7 kmh -338605.1 mb 0.00 in0.0 mm 0.00 in/hr0.0 mm/hr 0.00 in0.0 mm
04:07 PM 72.3°F22.4°C 41.5°F5.3°C 33% 15.0 mph S24.1 kmh S 15.0 mph24.1 kmh -338605.1 mb 0.00 in0.0 mm 0.00 in/hr0.0 mm/hr 0.00 in0.0 mm
04:12 PM 72.0°F22.2°C 41.4°F5.2°C 33% 19.9 mph S32.0 kmh S 25.1 mph40.4 kmh -338605.1 mb 0.00 in0.0 mm 0.00 in/hr0.0 mm/hr 0.00 in0.0 mm
04:17 PM 71.8°F22.1°C 41.2°F5.1°C 33% 19.9 mph S32.0 kmh S 11.0 mph17.7 kmh -338605.1 mb 0.00 in0.0 mm 0.00 in/hr0.0 mm/hr 0.00 in0.0 mm
04:22 PM 72.0°F22.2°C 41.4°F5.2°C 33% 19.0 mph S30.6 kmh S 17.0 mph27.4 kmh -338605.1 mb 0.00 in0.0 mm 0.00 in/hr0.0 mm/hr 0.00 in0.0 mm
04:27 PM 71.6°F22.0°C 41.7°F5.4°C 34% 19.9 mph S32.0 kmh S 19.9 mph32.0 kmh -338605.1 mb 0.00 in0.0 mm 0.00 in/hr0.0 mm/hr 0.00 in0.0 mm
04:32 PM 71.4°F21.9°C 41.5°F5.3°C 34% 21.0 mph S33.8 kmh S 23.0 mph37.0 kmh -338605.1 mb 0.00 in0.0 mm 0.00 in/hr0.0 mm/hr 0.00 in0.0 mm
04:37 PM 71.1°F21.7°C 42.1°F5.6°C 35% 21.0 mph SSW33.8 kmh SSW 27.1 mph43.6 kmh -338605.1 mb 0.00 in0.0 mm 0.00 in/hr0.0 mm/hr 0.00 in0.0 mm
04:42 PM 70.9°F21.6°C 41.9°F5.5°C 35% 21.0 mph S33.8 kmh S 31.1 mph50.1 kmh -338605.1 mb 0.00 in0.0 mm 0.00 in/hr0.0 mm/hr 0.00 in0.0 mm
04:47 PM 70.7°F21.5°C 42.4°F5.8°C 36% 21.9 mph S35.2 kmh S 25.1 mph40.4 kmh -338605.1 mb 0.00 in0.0 mm 0.00 in/hr0.0 mm/hr 0.00 in0.0 mm
04:52 PM 70.7°F21.5°C 43.2°F6.2°C 37% 21.9 mph S35.2 kmh S 25.1 mph40.4 kmh -338605.1 mb 0.00 in0.0 mm 0.00 in/hr0.0 mm/hr 0.00 in0.0 mm
04:57 PM 70.3°F21.3°C 42.8°F6.0°C 37% 21.9 mph SSW35.2 kmh SSW 17.9 mph28.8 kmh -338605.1 mb 0.00 in0.0 mm 0.00 in/hr0.0 mm/hr 0.00 in0.0 mm